Montrose, Iowa
Current Conditions -  °F | °C
As of 7:35 AM on Saturday 25 Oct 2014 (Local Time) from KEOK Reporting Station
Moderate Fog Moderate Fog  
Wind Chill: 50°   Ceiling: 100
Heat Index: 50°   Visibility: 0mi
Dew Point: 50°   Wind: 6mph
Humidity: 100%   Direction: 250°WSW
Pressure: 30"   Gusts: NA
Location:  40.53°N, 91.41°W
Report Text: KEOK 251235Z AUTO 25005KT M1/4SM FG OVC001 10/10 A3000 RMK AO2
Loading
Personal Weather Stations






























Interactive Weather Map
Tropical Storm Tracking
New forecast layout! Learn more

10-Day Weather Forecast

Advertisements
Track Severe Weather on mobile